createdAt,value
2017-11-24T00:01:53.067Z,3.50
2017-11-24T00:04:21.400Z,3.93
2017-11-24T00:06:49.681Z,3.70
2017-11-24T00:09:17.965Z,3.00
2017-11-24T00:11:46.302Z,2.90
2017-11-24T00:14:15.383Z,3.13
2017-11-24T00:16:44.481Z,3.23
2017-11-24T00:19:12.775Z,3.37
2017-11-24T00:21:41.858Z,3.80
2017-11-24T00:24:10.146Z,3.80
2017-11-24T00:26:38.474Z,3.20
2017-11-24T00:29:06.820Z,3.17
2017-11-24T00:31:35.149Z,3.20
2017-11-24T00:34:03.507Z,3.07
2017-11-24T00:36:32.578Z,3.40
2017-11-24T00:39:00.885Z,3.70
2017-11-24T00:41:29.181Z,3.50
2017-11-24T00:43:58.266Z,2.60
2017-11-24T00:46:26.584Z,3.33
2017-11-24T00:48:55.426Z,3.27
2017-11-24T00:51:24.422Z,2.57
2017-11-24T00:53:54.141Z,2.70
2017-11-24T00:56:22.463Z,3.40
2017-11-24T00:58:51.592Z,3.30
2017-11-24T01:01:19.910Z,3.17
2017-11-24T01:03:48.997Z,3.30
2017-11-24T01:06:17.320Z,2.87
2017-11-24T01:08:45.658Z,3.57
2017-11-24T01:11:13.973Z,3.13
2017-11-24T01:13:42.263Z,3.80
2017-11-24T01:16:10.573Z,3.57
2017-11-24T01:18:39.683Z,3.80
2017-11-24T01:21:08.025Z,3.13
2017-11-24T01:23:36.334Z,3.60
2017-11-24T01:26:04.645Z,3.37
2017-11-24T01:28:32.974Z,3.37
2017-11-24T01:31:01.318Z,2.83
2017-11-24T01:33:29.663Z,3.30
2017-11-24T01:35:57.989Z,3.40
2017-11-24T01:38:26.307Z,4.33
2017-11-24T01:40:55.365Z,3.37
2017-11-24T01:43:23.685Z,3.40
2017-11-24T01:45:52.027Z,3.50
2017-11-24T01:48:21.353Z,3.33
2017-11-24T01:50:49.652Z,3.47
2017-11-24T01:53:17.976Z,3.13
2017-11-24T01:55:46.290Z,3.07
2017-11-24T01:58:14.586Z,3.77
2017-11-24T02:00:42.902Z,3.53
2017-11-24T02:03:11.206Z,3.03
2017-11-24T02:05:40.302Z,3.33
2017-11-24T02:08:08.632Z,3.30
2017-11-24T02:10:37.690Z,3.50
2017-11-24T02:13:06.050Z,3.83
2017-11-24T02:15:34.350Z,3.40
2017-11-24T02:18:02.681Z,3.50
2017-11-24T02:20:31.013Z,3.70
2017-11-24T02:22:59.333Z,3.60
2017-11-24T02:25:27.647Z,3.63
2017-11-24T02:27:55.935Z,3.80
2017-11-24T02:30:25.034Z,3.60
2017-11-24T02:32:53.384Z,2.90
2017-11-24T02:35:21.700Z,3.30
2017-11-24T02:37:49.992Z,3.20
2017-11-24T02:40:18.321Z,3.17
2017-11-24T02:42:46.663Z,3.37
2017-11-24T02:45:14.954Z,3.40
2017-11-24T02:47:43.269Z,3.27
2017-11-24T02:50:12.398Z,3.60
2017-11-24T02:52:40.946Z,3.37
2017-11-24T02:55:09.240Z,2.73
2017-11-24T02:57:38.452Z,3.73
2017-11-24T03:00:06.743Z,3.70
2017-11-24T03:02:35.053Z,3.67
2017-11-24T03:05:03.403Z,3.40
2017-11-24T03:07:31.813Z,3.17
2017-11-24T03:10:00.894Z,3.47
2017-11-24T03:12:29.253Z,3.00
2017-11-24T03:14:58.327Z,3.70
2017-11-24T03:17:26.629Z,5.47
2017-11-24T03:19:54.947Z,2.97
2017-11-24T03:22:23.256Z,3.47
2017-11-24T03:24:51.597Z,3.50
2017-11-24T03:27:19.979Z,3.53
2017-11-24T03:29:48.294Z,3.83
2017-11-24T03:32:16.682Z,3.13
2017-11-24T03:34:44.974Z,3.63
2017-11-24T03:37:13.266Z,3.50
2017-11-24T03:39:42.382Z,3.20
2017-11-24T03:42:10.789Z,3.70
2017-11-24T03:44:39.872Z,4.00
2017-11-24T03:47:08.172Z,3.37
2017-11-24T03:49:36.590Z,3.60
2017-11-24T03:52:04.905Z,4.27
2017-11-24T03:54:33.997Z,3.33
2017-11-24T03:57:02.314Z,3.80
2017-11-24T03:59:31.373Z,3.70
2017-11-24T04:02:00.464Z,3.60
2017-11-24T04:04:28.753Z,3.90
2017-11-24T04:06:57.046Z,4.10
2017-11-24T04:09:26.161Z,3.30
2017-11-24T04:11:54.466Z,4.20
2017-11-24T04:14:23.472Z,3.60
2017-11-24T04:16:51.814Z,3.20
2017-11-24T04:19:20.166Z,3.60
2017-11-24T04:21:48.500Z,3.60
2017-11-24T04:24:16.802Z,3.97
2017-11-24T04:26:45.142Z,4.13
2017-11-24T04:29:13.430Z,3.43
2017-11-24T04:31:42.490Z,4.00
2017-11-24T04:34:10.817Z,4.30
2017-11-24T04:36:39.119Z,3.33
2017-11-24T04:39:08.184Z,3.70
2017-11-24T04:41:36.502Z,3.20
2017-11-24T04:44:04.995Z,4.43
2017-11-24T04:46:33.310Z,3.80
2017-11-24T04:49:01.644Z,3.77
2017-11-24T04:51:29.932Z,3.20
2017-11-24T04:53:58.249Z,3.40
2017-11-24T04:56:26.564Z,3.87
2017-11-24T04:58:55.653Z,4.43
2017-11-24T05:01:23.940Z,3.80
2017-11-24T05:03:52.231Z,3.43
2017-11-24T05:06:20.561Z,4.17
2017-11-24T05:08:48.835Z,4.40
2017-11-24T05:11:17.131Z,3.97
2017-11-24T05:13:45.449Z,3.97
2017-11-24T05:16:13.778Z,4.27
2017-11-24T05:18:42.067Z,3.20
2017-11-24T05:21:10.383Z,3.60
2017-11-24T05:23:38.718Z,4.17
2017-11-24T05:26:07.789Z,3.60
2017-11-24T05:28:36.097Z,3.63
2017-11-24T05:31:05.099Z,3.57
2017-11-24T05:33:33.385Z,3.73
2017-11-24T05:36:01.678Z,4.17
2017-11-24T05:38:30.076Z,4.20
2017-11-24T05:40:58.380Z,3.33
2017-11-24T05:43:26.688Z,3.83
2017-11-24T05:45:55.053Z,4.83
2017-11-24T05:48:23.380Z,4.10
2017-11-24T05:50:52.477Z,3.33
2017-11-24T05:53:20.761Z,3.80
2017-11-24T05:55:49.084Z,4.20
2017-11-24T05:58:17.435Z,3.70
2017-11-24T06:00:45.772Z,4.20
2017-11-24T06:03:14.081Z,4.43
2017-11-24T06:05:42.414Z,4.80
2017-11-24T06:08:11.486Z,5.00
2017-11-24T06:10:39.912Z,4.13
2017-11-24T06:13:09.069Z,4.90
2017-11-24T06:15:38.132Z,5.00
2017-11-24T06:18:07.045Z,5.17
2017-11-24T06:20:35.981Z,5.33
2017-11-24T06:23:04.998Z,5.03
2017-11-24T06:25:33.345Z,5.50
2017-11-24T06:28:01.696Z,5.27
2017-11-24T06:30:30.053Z,5.60
2017-11-24T06:32:58.356Z,5.67
2017-11-24T06:35:27.447Z,5.60
2017-11-24T06:37:55.744Z,5.60
2017-11-24T06:40:24.080Z,5.77
2017-11-24T06:42:52.419Z,5.83
2017-11-24T06:45:21.467Z,5.40
2017-11-24T06:47:49.808Z,5.87
2017-11-24T06:50:18.117Z,5.63
2017-11-24T06:52:46.429Z,5.60
2017-11-24T06:55:14.777Z,5.73
2017-11-24T06:57:43.857Z,5.50
2017-11-24T07:00:13.001Z,5.83
2017-11-24T07:02:41.296Z,5.57
2017-11-24T07:05:10.440Z,5.13
2017-11-24T07:07:38.753Z,5.70
2017-11-24T07:10:08.147Z,6.37
2017-11-24T07:12:36.897Z,6.80
2017-11-24T07:15:05.217Z,5.80
2017-11-24T07:17:34.334Z,6.20
2017-11-24T07:20:02.738Z,5.80
2017-11-24T07:22:31.085Z,6.03
2017-11-24T07:24:59.413Z,5.10
2017-11-24T07:27:27.699Z,6.20
2017-11-24T07:29:56.127Z,6.13
2017-11-24T07:32:24.473Z,5.70
2017-11-24T07:34:52.845Z,5.43
2017-11-24T07:37:21.214Z,6.70
2017-11-24T07:39:50.508Z,5.33
2017-11-24T07:42:18.949Z,6.50
2017-11-24T07:44:47.289Z,5.60
2017-11-24T07:47:15.640Z,5.20
2017-11-24T07:49:43.949Z,6.00
2017-11-24T07:52:12.362Z,5.60
2017-11-24T07:54:40.662Z,6.30
2017-11-24T07:57:09.762Z,5.10
2017-11-24T07:59:38.118Z,5.00
2017-11-24T08:02:07.132Z,5.20
2017-11-24T08:04:37.299Z,4.63
2017-11-24T08:07:06.388Z,4.90
2017-11-24T08:09:35.425Z,5.10
2017-11-24T08:12:05.400Z,4.93
2017-11-24T08:14:34.008Z,6.17
2017-11-24T08:17:02.300Z,4.43
2017-11-24T08:19:30.644Z,4.80
2017-11-24T08:21:58.977Z,5.83
2017-11-24T08:24:27.290Z,5.73
2017-11-24T08:26:55.716Z,5.13
2017-11-24T08:29:24.077Z,5.10
2017-11-24T08:31:52.395Z,5.10
2017-11-24T08:34:20.715Z,5.20
2017-11-24T08:36:49.061Z,5.23
2017-11-24T08:39:17.361Z,5.00
2017-11-24T08:41:45.697Z,4.80
2017-11-24T08:44:15.101Z,5.30
2017-11-24T08:46:48.805Z,5.47
2017-11-24T08:49:22.588Z,5.43
2017-11-24T08:51:50.954Z,5.03
2017-11-24T08:54:19.333Z,5.50
2017-11-24T08:56:47.657Z,5.97
2017-11-24T08:59:16.941Z,5.13
2017-11-24T09:01:45.236Z,5.67
2017-11-24T09:04:13.600Z,5.27
2017-11-24T09:06:41.928Z,4.40
2017-11-24T09:09:10.250Z,5.13
2017-11-24T09:11:39.360Z,4.90
2017-11-24T09:14:07.873Z,4.30
2017-11-24T09:16:36.287Z,4.80
2017-11-24T09:19:05.805Z,4.10
2017-11-24T09:21:34.148Z,4.83
2017-11-24T09:24:02.519Z,4.00
2017-11-24T09:26:30.900Z,4.60
2017-11-24T09:28:59.251Z,4.30
2017-11-24T09:31:27.605Z,3.70
2017-11-24T09:33:55.908Z,4.20
2017-11-24T09:36:25.013Z,4.27
2017-11-24T09:38:53.539Z,4.13
2017-11-24T09:41:22.642Z,4.07
2017-11-24T09:43:51.880Z,4.80
2017-11-24T09:46:20.185Z,4.63
2017-11-24T09:48:49.452Z,4.40
2017-11-24T09:51:19.455Z,4.73
2017-11-24T09:53:47.782Z,4.20
2017-11-24T09:56:16.153Z,3.90
2017-11-24T09:58:44.464Z,4.60
2017-11-24T10:01:12.810Z,3.83
2017-11-24T10:03:42.073Z,4.13
2017-11-24T10:06:10.380Z,4.00
2017-11-24T10:08:38.716Z,4.23
2017-11-24T10:11:07.792Z,4.30
2017-11-24T10:13:36.829Z,4.43
2017-11-24T10:16:05.157Z,3.43
2017-11-24T10:18:33.525Z,3.70
2017-11-24T10:21:07.249Z,3.80
2017-11-24T10:23:37.030Z,4.07
2017-11-24T10:26:05.342Z,4.27
2017-11-24T10:28:34.801Z,3.70
2017-11-24T10:31:05.426Z,4.70
2017-11-24T10:33:34.540Z,3.83
2017-11-24T10:36:02.820Z,3.50
2017-11-24T10:38:31.104Z,2.73
2017-11-24T10:41:00.195Z,4.03
2017-11-24T10:43:29.291Z,4.07
2017-11-24T10:45:57.598Z,4.20
2017-11-24T10:48:25.907Z,3.90
2017-11-24T10:50:54.249Z,3.97
2017-11-24T10:53:22.579Z,3.43
2017-11-24T10:55:51.662Z,3.80
2017-11-24T10:58:19.997Z,3.50
2017-11-24T11:00:48.302Z,3.80
2017-11-24T11:03:16.595Z,3.30
2017-11-24T11:05:44.934Z,4.00
2017-11-24T11:08:13.281Z,3.30
2017-11-24T11:10:41.620Z,4.20
2017-11-24T11:13:09.945Z,3.43
2017-11-24T11:15:38.293Z,3.90
2017-11-24T11:18:07.394Z,3.77
2017-11-24T11:20:35.690Z,3.53
2017-11-24T11:23:04.023Z,3.33
2017-11-24T11:25:32.349Z,3.83
2017-11-24T11:28:00.629Z,4.20
2017-11-24T11:30:28.921Z,3.87
2017-11-24T11:32:57.340Z,3.20
2017-11-24T11:35:25.659Z,3.20
2017-11-24T11:37:53.977Z,3.17
2017-11-24T11:40:21.715Z,3.10
2017-11-24T11:42:50.069Z,4.10
2017-11-24T11:45:18.390Z,2.90
2017-11-24T11:47:46.899Z,3.37
2017-11-24T11:50:15.264Z,3.53
2017-11-24T11:52:43.567Z,2.83
2017-11-24T11:55:12.624Z,4.07
2017-11-24T11:57:40.980Z,3.80
2017-11-24T12:00:09.351Z,3.40
2017-11-24T12:02:38.459Z,3.63
2017-11-24T12:05:06.869Z,3.70
2017-11-24T12:07:35.159Z,3.60
2017-11-24T12:10:03.447Z,2.93
2017-11-24T12:12:31.796Z,3.03
2017-11-24T12:15:00.153Z,3.43
2017-11-24T12:17:28.493Z,3.57
2017-11-24T12:19:57.109Z,3.70
2017-11-24T12:22:25.421Z,3.03
2017-11-24T12:24:56.881Z,3.20
2017-11-24T12:27:25.156Z,3.33
2017-11-24T12:29:54.203Z,3.63
2017-11-24T12:32:22.550Z,3.60
2017-11-24T12:34:50.823Z,3.53
2017-11-24T12:37:19.126Z,3.20
2017-11-24T12:39:47.443Z,3.50
2017-11-24T12:42:15.716Z,3.67
2017-11-24T12:44:44.023Z,3.77
2017-11-24T12:47:12.527Z,3.30
2017-11-24T12:49:40.799Z,3.10
2017-11-24T12:52:09.083Z,3.13
2017-11-24T12:54:38.204Z,3.53
2017-11-24T12:57:07.312Z,3.50
2017-11-24T12:59:36.552Z,3.90
2017-11-24T13:02:05.609Z,3.40
2017-11-24T13:04:33.947Z,3.10
2017-11-24T13:07:02.296Z,3.10
2017-11-24T13:09:30.618Z,3.67
2017-11-24T13:11:58.912Z,3.17
2017-11-24T13:14:28.209Z,3.50
2017-11-24T13:16:57.269Z,3.70
2017-11-24T13:19:25.533Z,3.40
2017-11-24T13:21:54.616Z,3.00
2017-11-24T13:24:23.941Z,3.10
2017-11-24T13:26:52.258Z,3.20
2017-11-24T13:29:20.536Z,3.63
2017-11-24T13:31:48.852Z,3.63
2017-11-24T13:34:17.148Z,3.47
2017-11-24T13:36:45.468Z,4.10
2017-11-24T13:39:14.774Z,3.97
2017-11-24T13:41:43.110Z,3.37
2017-11-24T13:44:12.207Z,3.20
2017-11-24T13:46:41.557Z,3.93
2017-11-24T13:49:10.628Z,5.03
2017-11-24T13:51:38.908Z,3.97
2017-11-24T13:54:07.256Z,4.63
2017-11-24T13:56:35.578Z,4.57
2017-11-24T13:59:04.659Z,4.33
2017-11-24T14:01:32.991Z,4.43
2017-11-24T14:04:01.280Z,4.43
2017-11-24T14:06:29.581Z,4.00
2017-11-24T14:08:57.900Z,4.47
2017-11-24T14:11:26.200Z,5.60
2017-11-24T14:13:54.484Z,4.97
2017-11-24T14:16:23.829Z,4.83
2017-11-24T14:18:52.256Z,4.50
2017-11-24T14:21:20.575Z,4.13
2017-11-24T14:23:48.904Z,5.20
2017-11-24T14:26:17.240Z,5.10
2017-11-24T14:28:45.550Z,5.07
2017-11-24T14:31:13.867Z,5.17
2017-11-24T14:33:42.179Z,5.00
2017-11-24T14:36:10.540Z,4.97
2017-11-24T14:38:38.884Z,4.53
2017-11-24T14:41:09.144Z,4.57
2017-11-24T14:43:37.493Z,4.03
2017-11-24T14:46:06.580Z,4.97
2017-11-24T14:48:35.807Z,4.50
2017-11-24T14:51:04.130Z,4.40
2017-11-24T14:53:32.412Z,4.83
2017-11-24T14:56:00.697Z,1.83
2017-11-24T14:58:29.012Z,1.20
2017-11-24T15:00:57.343Z,1.47
2017-11-24T15:03:26.396Z,1.30
2017-11-24T15:05:54.717Z,0.77
2017-11-24T15:08:25.028Z,0.70
2017-11-24T15:10:54.100Z,0.60
2017-11-24T15:13:22.392Z,0.67
2017-11-24T15:15:50.743Z,0.70
2017-11-24T15:18:23.964Z,0.60
2017-11-24T15:20:52.361Z,0.40
2017-11-24T15:23:20.685Z,0.67
2017-11-24T15:25:49.001Z,0.60
2017-11-24T15:28:17.296Z,0.60
2017-11-24T15:30:47.601Z,0.70
2017-11-24T15:33:15.941Z,0.67
2017-11-24T15:35:44.272Z,0.60
2017-11-24T15:38:12.592Z,1.30
2017-11-24T15:40:40.905Z,1.23
2017-11-24T15:43:10.271Z,1.30
2017-11-24T15:45:39.568Z,1.10
2017-11-24T15:48:07.893Z,8.23
2017-11-24T15:50:36.201Z,1.70
2017-11-24T15:53:06.727Z,1.63
2017-11-24T15:55:35.820Z,0.90
2017-11-24T15:58:04.145Z,1.37
2017-11-24T16:00:36.762Z,1.50
2017-11-24T16:03:05.861Z,1.60
2017-11-24T16:05:34.201Z,1.50
2017-11-24T16:08:02.524Z,1.10
2017-11-24T16:10:30.839Z,1.27
2017-11-24T16:12:59.136Z,1.40
2017-11-24T16:15:27.409Z,1.20
2017-11-24T16:17:55.748Z,0.90
2017-11-24T16:20:24.029Z,2.40
2017-11-24T16:22:52.328Z,1.60
2017-11-24T16:25:20.890Z,2.37
2017-11-24T16:27:49.168Z,1.33
2017-11-24T16:30:17.461Z,1.90
2017-11-24T16:32:45.775Z,1.10
2017-11-24T16:35:14.044Z,1.43
2017-11-24T16:37:42.500Z,1.50
2017-11-24T16:40:10.812Z,2.00
2017-11-24T16:42:39.116Z,2.77
2017-11-24T16:45:07.484Z,1.73
2017-11-24T16:47:35.783Z,1.67
2017-11-24T16:50:04.077Z,1.80
2017-11-24T16:52:32.387Z,1.63
2017-11-24T16:55:00.666Z,1.17
2017-11-24T16:57:28.937Z,1.50
2017-11-24T16:59:57.252Z,1.30
2017-11-24T17:02:25.533Z,1.30
2017-11-24T17:04:54.602Z,1.90
2017-11-24T17:07:23.773Z,1.70
2017-11-24T17:09:52.829Z,1.97
2017-11-24T17:12:21.176Z,1.73
2017-11-24T17:14:49.521Z,2.37
2017-11-24T17:17:17.808Z,2.57
2017-11-24T17:19:46.866Z,2.10
2017-11-24T17:22:15.177Z,2.10
2017-11-24T17:24:43.474Z,2.30
2017-11-24T17:27:11.780Z,2.20
2017-11-24T17:29:40.072Z,2.47
2017-11-24T17:32:08.422Z,2.60
2017-11-24T17:34:37.159Z,3.07
2017-11-24T17:37:05.493Z,3.23
2017-11-24T17:39:33.828Z,3.13
2017-11-24T17:42:02.108Z,3.27
2017-11-24T17:44:30.420Z,3.80
2017-11-24T17:46:58.690Z,3.30
2017-11-24T17:49:26.981Z,22.47
2017-11-24T17:51:55.294Z,6.33
2017-11-24T17:54:23.564Z,5.10
2017-11-24T17:56:52.625Z,4.07
2017-11-24T17:59:21.935Z,4.87
2017-11-24T18:01:50.222Z,4.80
2017-11-24T18:04:18.603Z,4.40
2017-11-24T18:06:46.921Z,4.10
2017-11-24T18:09:15.231Z,5.07
2017-11-24T18:11:43.532Z,4.47
2017-11-24T18:14:12.606Z,4.90
2017-11-24T18:16:40.953Z,4.63
2017-11-24T18:19:10.079Z,4.67
2017-11-24T18:21:38.434Z,4.47
2017-11-24T18:24:07.015Z,5.50
2017-11-24T18:26:36.755Z,5.77
2017-11-24T18:29:05.068Z,5.23
2017-11-24T18:31:33.336Z,6.10
2017-11-24T18:34:01.677Z,35.73
2017-11-24T18:36:29.972Z,5.10
2017-11-24T18:39:00.988Z,5.10
2017-11-24T18:41:29.332Z,5.80
2017-11-24T18:43:59.771Z,5.60
2017-11-24T18:46:28.194Z,5.80
2017-11-24T18:48:56.486Z,5.33
2017-11-24T18:51:24.783Z,7.00
2017-11-24T18:53:53.129Z,6.30
2017-11-24T18:56:21.444Z,6.53
2017-11-24T18:58:49.748Z,5.87
2017-11-24T19:01:18.043Z,6.60
2017-11-24T19:03:46.366Z,7.50
2017-11-24T19:06:14.719Z,6.90
2017-11-24T19:08:43.034Z,7.10
2017-11-24T19:11:11.375Z,7.40
2017-11-24T19:13:39.689Z,6.07
2017-11-24T19:16:07.986Z,7.60
2017-11-24T19:18:36.820Z,7.23
2017-11-24T19:21:05.141Z,7.07
2017-11-24T19:23:34.220Z,7.10
2017-11-24T19:26:05.261Z,8.57
2017-11-24T19:28:33.621Z,9.10
2017-11-24T19:31:02.700Z,8.60
2017-11-24T19:33:31.034Z,8.40
2017-11-24T19:36:01.050Z,7.93
2017-11-24T19:38:29.378Z,9.00
2017-11-24T19:40:57.716Z,10.23
2017-11-24T19:43:26.078Z,8.67
2017-11-24T19:45:59.016Z,8.53
2017-11-24T19:48:27.304Z,9.93
2017-11-24T19:50:55.662Z,9.60
2017-11-24T19:53:24.028Z,9.37
2017-11-24T19:55:52.336Z,9.97
2017-11-24T19:58:20.719Z,8.67
2017-11-24T20:00:49.817Z,9.27
2017-11-24T20:03:18.120Z,10.83
2017-11-24T20:05:46.408Z,12.30
2017-11-24T20:08:18.501Z,9.87
2017-11-24T20:10:46.796Z,13.50
2017-11-24T20:13:19.948Z,10.37
2017-11-24T20:15:48.244Z,10.53
2017-11-24T20:18:16.551Z,10.00
2017-11-24T20:20:44.929Z,11.20
2017-11-24T20:23:13.245Z,11.20
2017-11-24T20:25:41.585Z,11.40
2017-11-24T20:28:09.960Z,11.17
2017-11-24T20:30:39.057Z,10.80
2017-11-24T20:33:09.093Z,11.87
2017-11-24T20:35:37.461Z,13.70
2017-11-24T20:38:06.863Z,9.80
2017-11-24T20:40:35.197Z,11.07
2017-11-24T20:43:03.514Z,10.90
2017-11-24T20:45:31.882Z,9.63
2017-11-24T20:48:00.964Z,9.43
2017-11-24T20:50:29.300Z,9.40
2017-11-24T20:52:57.591Z,9.20
2017-11-24T20:55:25.891Z,10.30
2017-11-24T20:57:58.464Z,9.90
2017-11-24T21:00:26.761Z,10.20
2017-11-24T21:02:55.090Z,9.53
2017-11-24T21:05:23.398Z,9.87
2017-11-24T21:07:51.716Z,9.37
2017-11-24T21:10:20.009Z,8.77
2017-11-24T21:12:49.240Z,9.60
2017-11-24T21:15:18.324Z,10.70
2017-11-24T21:17:48.325Z,10.77
2017-11-24T21:20:16.651Z,10.47
2017-11-24T21:22:44.959Z,10.23
2017-11-24T21:25:13.332Z,11.00
2017-11-24T21:27:41.637Z,9.87
2017-11-24T21:30:10.014Z,10.23
2017-11-24T21:32:38.350Z,11.80
2017-11-24T21:35:07.429Z,11.73
2017-11-24T21:37:37.136Z,11.60
2017-11-24T21:40:05.478Z,10.00
2017-11-24T21:42:35.529Z,10.40
2017-11-24T21:45:04.884Z,10.77
2017-11-24T21:47:33.219Z,10.30
2017-11-24T21:50:01.510Z,10.87
2017-11-24T21:52:29.884Z,10.17
2017-11-24T21:54:58.184Z,12.10
2017-11-24T21:57:26.506Z,12.50
2017-11-24T21:59:54.818Z,12.73
2017-11-24T22:02:23.148Z,11.07
2017-11-24T22:04:52.409Z,10.67
2017-11-24T22:07:20.708Z,11.50
2017-11-24T22:09:49.053Z,11.00
2017-11-24T22:12:17.361Z,11.53
2017-11-24T22:14:46.418Z,11.00
2017-11-24T22:17:14.749Z,12.60
2017-11-24T22:19:43.069Z,12.03
2017-11-24T22:22:11.402Z,11.67
2017-11-24T22:24:39.731Z,14.50
2017-11-24T22:27:08.023Z,11.50
2017-11-24T22:29:37.161Z,12.27
2017-11-24T22:32:05.470Z,12.90
2017-11-24T22:34:37.006Z,14.63
2017-11-24T22:37:05.333Z,12.70
2017-11-24T22:39:33.672Z,12.33
2017-11-24T22:42:01.993Z,11.23
2017-11-24T22:44:30.332Z,13.13
2017-11-24T22:46:59.416Z,15.03
2017-11-24T22:49:28.540Z,14.30
2017-11-24T22:51:56.857Z,15.20
2017-11-24T22:54:25.931Z,13.90
2017-11-24T22:56:54.240Z,15.07
2017-11-24T22:59:22.551Z,14.57
2017-11-24T23:01:50.841Z,14.03
2017-11-24T23:04:19.181Z,14.40
2017-11-24T23:06:47.510Z,14.67
2017-11-24T23:09:15.799Z,14.30
2017-11-24T23:11:44.097Z,14.60
2017-11-24T23:14:12.462Z,14.00
2017-11-24T23:16:40.812Z,15.40
2017-11-24T23:19:09.107Z,13.13
2017-11-24T23:21:37.424Z,15.90
2017-11-24T23:24:07.132Z,13.80
2017-11-24T23:26:36.913Z,15.50
2017-11-24T23:29:06.974Z,15.00
2017-11-24T23:31:35.257Z,13.43
2017-11-24T23:34:03.552Z,13.40
2017-11-24T23:36:31.923Z,15.07
2017-11-24T23:39:00.210Z,13.07
2017-11-24T23:41:28.505Z,14.33
2017-11-24T23:43:56.861Z,14.30
2017-11-24T23:46:25.216Z,16.00
2017-11-24T23:48:53.499Z,13.83
2017-11-24T23:51:21.815Z,14.60
2017-11-24T23:53:50.096Z,12.80
2017-11-24T23:56:18.388Z,14.93
2017-11-24T23:58:46.692Z,14.10
